createdAt,value
2018-04-17T00:02:14.615Z,4.80
2018-04-17T00:04:42.180Z,4.72
2018-04-17T00:07:09.710Z,3.78
2018-04-17T00:09:37.252Z,4.93
2018-04-17T00:12:05.582Z,5.75
2018-04-17T00:14:33.115Z,3.28
2018-04-17T00:17:00.666Z,2.60
2018-04-17T00:19:28.196Z,4.40
2018-04-17T00:21:55.748Z,2.72
2018-04-17T00:24:24.052Z,2.95
2018-04-17T00:26:51.615Z,3.30
2018-04-17T00:29:19.172Z,3.12
2018-04-17T00:31:46.757Z,2.50
2018-04-17T00:34:14.317Z,2.58
2018-04-17T00:36:41.856Z,2.78
2018-04-17T00:39:09.421Z,3.37
2018-04-17T00:41:36.948Z,2.80
2018-04-17T00:44:05.268Z,2.75
2018-04-17T00:46:32.809Z,5.35
2018-04-17T00:49:01.123Z,3.55
2018-04-17T00:51:28.653Z,3.45
2018-04-17T00:54:11.096Z,2.83
2018-04-17T00:56:38.620Z,6.57
2018-04-17T00:59:06.174Z,2.62
2018-04-17T01:01:34.492Z,3.25
2018-04-17T01:04:02.055Z,3.83
2018-04-17T01:06:29.603Z,4.15
2018-04-17T01:08:57.135Z,5.80
2018-04-17T01:11:24.677Z,2.67
2018-04-17T01:13:52.972Z,4.07
2018-04-17T01:16:20.523Z,6.55
2018-04-17T01:18:48.854Z,4.93
2018-04-17T01:21:16.395Z,4.50
2018-04-17T01:23:43.917Z,3.20
2018-04-17T01:26:12.240Z,2.45
2018-04-17T01:28:39.798Z,4.03
2018-04-17T01:31:08.291Z,2.95
2018-04-17T01:33:35.839Z,5.03
2018-04-17T01:36:03.375Z,4.37
2018-04-17T01:38:30.951Z,2.70
2018-04-17T01:40:58.471Z,2.85
2018-04-17T01:43:26.784Z,9.57
2018-04-17T01:45:54.323Z,4.03
2018-04-17T01:48:21.855Z,4.28
2018-04-17T01:50:49.412Z,5.18
2018-04-17T01:53:16.952Z,6.10
2018-04-17T01:55:44.507Z,4.37
2018-04-17T01:58:12.043Z,3.30
2018-04-17T02:00:39.595Z,4.05
2018-04-17T02:03:07.156Z,8.40
2018-04-17T02:05:34.691Z,5.80
2018-04-17T02:08:03.010Z,7.47
2018-04-17T02:10:30.537Z,5.57
2018-04-17T02:12:58.108Z,3.45
2018-04-17T02:15:25.639Z,5.07
2018-04-17T02:17:53.942Z,5.12
2018-04-17T02:20:21.466Z,5.00
2018-04-17T02:22:49.026Z,7.03
2018-04-17T02:25:16.558Z,3.72
2018-04-17T02:27:44.099Z,6.25
2018-04-17T02:30:11.631Z,5.47
2018-04-17T02:32:39.192Z,5.10
2018-04-17T02:35:06.732Z,6.70
2018-04-17T02:37:35.057Z,9.68
2018-04-17T02:40:02.585Z,4.18
2018-04-17T02:42:30.903Z,5.53
2018-04-17T02:44:58.430Z,4.45
2018-04-17T02:47:25.989Z,4.25
2018-04-17T02:49:53.545Z,5.65
2018-04-17T02:52:21.080Z,7.47
2018-04-17T02:54:49.403Z,5.03
2018-04-17T02:57:16.923Z,7.18
2018-04-17T02:59:45.229Z,4.87
2018-04-17T03:02:12.796Z,6.07
2018-04-17T03:04:40.352Z,3.97
2018-04-17T03:07:07.885Z,5.10
2018-04-17T03:09:35.435Z,3.90
2018-04-17T03:12:03.752Z,6.40
2018-04-17T03:14:31.292Z,7.95
2018-04-17T03:16:58.843Z,5.70
2018-04-17T03:19:26.380Z,5.80
2018-04-17T03:21:54.690Z,4.97
2018-04-17T03:24:22.222Z,5.03
2018-04-17T03:26:50.531Z,4.95
2018-04-17T03:29:18.062Z,5.37
2018-04-17T03:31:46.369Z,4.28
2018-04-17T03:34:13.896Z,6.30
2018-04-17T03:36:42.214Z,7.25
2018-04-17T03:39:09.743Z,4.87
2018-04-17T03:41:38.060Z,6.45
2018-04-17T03:44:05.590Z,5.50
2018-04-17T03:46:33.128Z,6.40
2018-04-17T03:49:01.437Z,7.22
2018-04-17T03:51:28.975Z,14.30
2018-04-17T03:53:56.524Z,4.85
2018-04-17T03:56:24.818Z,6.18
2018-04-17T03:58:52.363Z,4.55
2018-04-17T04:01:20.663Z,5.87
2018-04-17T04:03:48.198Z,6.15
2018-04-17T04:06:16.519Z,5.05
2018-04-17T04:08:44.059Z,6.00
2018-04-17T04:11:11.624Z,5.87
2018-04-17T04:13:39.146Z,4.72
2018-04-17T04:16:13.511Z,7.47
2018-04-17T04:18:52.908Z,7.05
2018-04-17T04:21:33.069Z,4.07
2018-04-17T04:24:13.135Z,4.53
2018-04-17T04:26:40.712Z,9.35
2018-04-17T04:29:08.243Z,5.22
2018-04-17T04:31:36.540Z,7.87
2018-04-17T04:34:04.083Z,5.53
2018-04-17T04:36:32.391Z,6.93
2018-04-17T04:38:59.945Z,6.57
2018-04-17T04:41:27.501Z,5.20
2018-04-17T04:43:55.051Z,7.15
2018-04-17T04:46:22.587Z,8.80
2018-04-17T04:48:50.901Z,7.87
2018-04-17T04:51:18.447Z,6.22
2018-04-17T04:53:45.999Z,7.10
2018-04-17T04:56:13.527Z,6.60
2018-04-17T04:58:41.095Z,5.45
2018-04-17T05:01:08.656Z,4.78
2018-04-17T05:03:36.206Z,4.78
2018-04-17T05:06:04.520Z,5.72
2018-04-17T05:08:32.071Z,5.20
2018-04-17T05:11:00.377Z,8.07
2018-04-17T05:13:27.967Z,6.12
2018-04-17T05:15:55.508Z,7.32
2018-04-17T05:18:23.063Z,6.47
2018-04-17T05:20:50.675Z,5.20
2018-04-17T05:23:18.237Z,7.32
2018-04-17T05:25:46.568Z,5.75
2018-04-17T05:28:14.107Z,6.57
2018-04-17T05:30:41.665Z,8.68
2018-04-17T05:33:09.187Z,7.10
2018-04-17T05:35:36.751Z,9.68
2018-04-17T05:38:04.290Z,8.80
2018-04-17T05:40:31.868Z,8.63
2018-04-17T05:42:59.416Z,8.63
2018-04-17T05:45:26.982Z,6.50
2018-04-17T05:47:54.511Z,9.23
2018-04-17T05:50:22.042Z,7.22
2018-04-17T05:52:49.602Z,9.93
2018-04-17T05:55:17.130Z,6.75
2018-04-17T05:57:45.447Z,6.90
2018-04-17T06:00:12.969Z,8.95
2018-04-17T06:02:40.495Z,6.30
2018-04-17T06:05:08.191Z,14.45
2018-04-17T06:07:35.687Z,7.75
2018-04-17T06:10:03.225Z,8.20
2018-04-17T06:12:31.552Z,8.65
2018-04-17T06:14:59.077Z,9.05
2018-04-17T06:17:26.647Z,9.90
2018-04-17T06:19:54.238Z,10.02
2018-04-17T06:22:21.783Z,7.90
2018-04-17T06:24:49.336Z,7.90
2018-04-17T06:27:16.896Z,6.65
2018-04-17T06:29:44.452Z,6.28
2018-04-17T06:32:12.013Z,10.20
2018-04-17T06:34:39.554Z,6.60
2018-04-17T06:37:07.122Z,9.83
2018-04-17T06:39:34.661Z,6.53
2018-04-17T06:42:02.997Z,6.83
2018-04-17T06:44:30.563Z,4.90
2018-04-17T06:46:58.113Z,7.50
2018-04-17T06:49:25.651Z,5.73
2018-04-17T06:51:53.205Z,12.73
2018-04-17T06:54:20.733Z,5.53
2018-04-17T06:56:49.075Z,7.00
2018-04-17T06:59:16.623Z,6.90
2018-04-17T07:01:44.188Z,9.50
2018-04-17T07:04:11.711Z,9.93
2018-04-17T07:06:39.245Z,6.23
2018-04-17T07:09:07.554Z,9.43
2018-04-17T07:11:35.086Z,8.13
2018-04-17T07:14:03.406Z,9.33
2018-04-17T07:16:30.922Z,14.33
2018-04-17T07:18:59.242Z,7.43
2018-04-17T07:21:26.799Z,7.53
2018-04-17T07:23:54.352Z,10.03
2018-04-17T07:26:21.892Z,6.07
2018-04-17T07:28:50.215Z,8.47
2018-04-17T07:31:17.785Z,7.43
2018-04-17T07:33:45.318Z,10.33
2018-04-17T07:36:12.859Z,7.73
2018-04-17T07:38:40.400Z,7.90
2018-04-17T07:41:08.728Z,10.17
2018-04-17T07:43:36.271Z,7.23
2018-04-17T07:46:03.794Z,6.00
2018-04-17T07:48:44.170Z,6.53
2018-04-17T07:51:11.695Z,12.17
2018-04-17T07:53:39.237Z,7.33
2018-04-17T07:56:06.765Z,7.63
2018-04-17T07:58:34.311Z,10.17
2018-04-17T08:01:01.843Z,6.30
2018-04-17T08:03:30.142Z,6.10
2018-04-17T08:05:58.456Z,5.23
2018-04-17T08:08:25.980Z,7.93
2018-04-17T08:10:54.303Z,7.93
2018-04-17T08:13:21.825Z,6.03
2018-04-17T08:15:49.361Z,5.33
2018-04-17T08:18:16.910Z,5.83
2018-04-17T08:20:44.471Z,4.50
2018-04-17T08:23:11.993Z,5.13
2018-04-17T08:25:39.535Z,4.57
2018-04-17T08:28:07.074Z,8.77
2018-04-17T08:30:34.603Z,7.93
2018-04-17T08:33:02.155Z,6.20
2018-04-17T08:35:29.687Z,7.17
2018-04-17T08:37:57.235Z,8.83
2018-04-17T08:40:24.771Z,4.93
2018-04-17T08:42:53.087Z,5.87
2018-04-17T08:45:20.616Z,4.87
2018-04-17T08:47:48.167Z,5.63
2018-04-17T08:50:15.707Z,5.83
2018-04-17T08:52:43.267Z,4.90
2018-04-17T08:55:10.793Z,5.20
2018-04-17T08:57:39.109Z,5.30
2018-04-17T09:00:06.641Z,5.90
2018-04-17T09:02:34.955Z,5.10
2018-04-17T09:05:02.495Z,5.60
2018-04-17T09:07:30.044Z,7.30
2018-04-17T09:09:58.349Z,8.13
2018-04-17T09:12:25.891Z,7.00
2018-04-17T09:14:53.456Z,4.93
2018-04-17T09:17:20.988Z,7.50
2018-04-17T09:19:49.300Z,5.53
2018-04-17T09:22:16.827Z,6.50
2018-04-17T09:24:45.137Z,5.50
2018-04-17T09:27:12.668Z,4.30
2018-04-17T09:29:40.983Z,7.70
2018-04-17T09:32:08.517Z,5.90
2018-04-17T09:34:36.833Z,2.73
2018-04-17T09:37:04.380Z,3.53
2018-04-17T09:39:31.927Z,3.87
2018-04-17T09:41:59.459Z,2.77
2018-04-17T09:44:27.758Z,3.40
2018-04-17T09:46:55.317Z,3.10
2018-04-17T09:49:22.846Z,3.60
2018-04-17T09:51:50.406Z,3.40
2018-04-17T09:54:17.934Z,3.43
2018-04-17T09:56:45.495Z,4.00
2018-04-17T09:59:13.032Z,4.70
2018-04-17T10:01:40.583Z,3.40
2018-04-17T10:04:08.103Z,5.70
2018-04-17T10:06:35.658Z,2.73
2018-04-17T10:09:03.239Z,4.07
2018-04-17T10:11:31.557Z,2.93
2018-04-17T10:13:59.103Z,5.20
2018-04-17T10:16:26.623Z,3.80
2018-04-17T10:18:54.182Z,2.47
2018-04-17T10:21:22.482Z,4.47
2018-04-17T10:23:50.795Z,2.93
2018-04-17T10:26:18.320Z,2.90
2018-04-17T10:28:45.858Z,4.47
2018-04-17T10:31:14.175Z,2.70
2018-04-17T10:33:41.724Z,2.83
2018-04-17T10:36:09.271Z,5.50
2018-04-17T10:38:37.572Z,3.40
2018-04-17T10:41:05.133Z,2.67
2018-04-17T10:43:32.657Z,2.90
2018-04-17T10:46:00.949Z,2.30
2018-04-17T10:48:29.265Z,2.40
2018-04-17T10:50:56.800Z,2.00
2018-04-17T10:53:24.375Z,2.17
2018-04-17T10:55:51.908Z,1.70
2018-04-17T10:58:19.665Z,3.30
2018-04-17T11:00:47.224Z,2.17
2018-04-17T11:03:14.786Z,3.03
2018-04-17T11:05:42.319Z,3.03
2018-04-17T11:08:10.634Z,3.40
2018-04-17T11:10:38.175Z,2.33
2018-04-17T11:13:05.746Z,2.17
2018-04-17T11:15:33.416Z,2.77
2018-04-17T11:18:01.016Z,3.43
2018-04-17T11:20:28.549Z,4.47
2018-04-17T11:22:56.111Z,5.53
2018-04-17T11:25:23.663Z,5.40
2018-04-17T11:27:51.196Z,4.30
2018-04-17T11:30:18.773Z,2.70
2018-04-17T11:32:46.314Z,5.73
2018-04-17T11:35:13.897Z,6.47
2018-04-17T11:37:41.425Z,5.30
2018-04-17T11:40:08.998Z,2.57
2018-04-17T11:42:36.580Z,3.33
2018-04-17T11:45:04.124Z,3.00
2018-04-17T11:47:31.678Z,5.43
2018-04-17T11:49:59.268Z,5.13
2018-04-17T11:52:26.923Z,2.57
2018-04-17T11:54:54.477Z,3.50
2018-04-17T11:57:22.015Z,3.53
2018-04-17T11:59:49.556Z,2.20
2018-04-17T12:02:17.196Z,2.00
2018-04-17T12:04:44.694Z,4.00
2018-04-17T12:07:12.224Z,2.87
2018-04-17T12:09:40.538Z,4.40
2018-04-17T12:12:08.075Z,2.07
2018-04-17T12:14:35.643Z,4.23
2018-04-17T12:17:03.185Z,3.10
2018-04-17T12:19:31.503Z,2.70
2018-04-17T12:21:59.084Z,3.23
2018-04-17T12:24:26.614Z,2.20
2018-04-17T12:26:54.137Z,2.37
2018-04-17T12:29:22.434Z,4.67
2018-04-17T12:31:49.987Z,4.73
2018-04-17T12:34:17.544Z,2.23
2018-04-17T12:36:45.099Z,2.40
2018-04-17T12:39:12.663Z,3.27
2018-04-17T12:41:40.206Z,3.97
2018-04-17T12:44:08.519Z,2.17
2018-04-17T12:46:36.063Z,1.43
2018-04-17T12:49:03.639Z,1.43
2018-04-17T12:51:31.179Z,3.10
2018-04-17T12:53:58.742Z,2.63
2018-04-17T12:56:26.282Z,2.00
2018-04-17T12:58:54.618Z,2.17
2018-04-17T13:01:22.146Z,2.03
2018-04-17T13:03:49.667Z,1.97
2018-04-17T13:06:17.216Z,1.43
2018-04-17T13:08:45.533Z,1.67
2018-04-17T13:11:13.086Z,4.00
2018-04-17T13:13:40.616Z,1.70
2018-04-17T13:16:08.177Z,3.13
2018-04-17T13:18:35.717Z,2.10
2018-04-17T13:21:04.048Z,1.80
2018-04-17T13:23:31.603Z,2.13
2018-04-17T13:25:59.147Z,1.93
2018-04-17T13:28:26.707Z,1.50
2018-04-17T13:30:54.232Z,2.60
2018-04-17T13:33:22.529Z,2.33
2018-04-17T13:35:50.114Z,2.23
2018-04-17T13:38:17.662Z,2.00
2018-04-17T13:40:45.215Z,3.10
2018-04-17T13:43:12.747Z,1.33
2018-04-17T13:45:41.053Z,1.20
2018-04-17T13:48:08.575Z,3.17
2018-04-17T13:50:36.102Z,1.90
2018-04-17T13:53:03.657Z,1.33
2018-04-17T13:55:31.194Z,2.60
2018-04-17T13:57:58.747Z,2.00
2018-04-17T14:00:26.275Z,2.20
2018-04-17T14:02:53.817Z,2.03
2018-04-17T14:05:22.857Z,2.50
2018-04-17T14:07:51.169Z,1.43
2018-04-17T14:10:18.704Z,1.23
2018-04-17T14:12:46.271Z,3.33
2018-04-17T14:15:13.797Z,4.93
2018-04-17T14:17:42.110Z,1.30
2018-04-17T14:20:09.641Z,1.70
2018-04-17T14:22:37.161Z,2.17
2018-04-17T14:25:05.477Z,1.50
2018-04-17T14:27:33.013Z,1.67
2018-04-17T14:30:01.359Z,1.30
2018-04-17T14:32:28.889Z,1.37
2018-04-17T14:34:56.440Z,1.20
2018-04-17T14:37:24.015Z,3.40
2018-04-17T14:39:51.537Z,2.50
2018-04-17T14:42:19.853Z,2.00
2018-04-17T14:44:47.420Z,1.70
2018-04-17T14:47:14.967Z,1.67
2018-04-17T14:49:42.503Z,2.33
2018-04-17T14:52:10.068Z,1.20
2018-04-17T14:54:37.602Z,1.83
2018-04-17T14:57:05.899Z,1.63
2018-04-17T14:59:36.074Z,1.40
2018-04-17T15:02:03.625Z,1.70
2018-04-17T15:04:31.192Z,2.07
2018-04-17T15:06:58.774Z,2.00
2018-04-17T15:09:26.331Z,2.67
2018-04-17T15:11:53.852Z,1.90
2018-04-17T15:14:21.399Z,1.40
2018-04-17T15:16:48.932Z,7.90
2018-04-17T15:19:17.249Z,1.43
2018-04-17T15:21:44.785Z,3.97
2018-04-17T15:24:17.191Z,2.43
2018-04-17T15:26:44.733Z,1.73
2018-04-17T15:29:12.269Z,1.47
2018-04-17T15:31:39.832Z,3.47
2018-04-17T15:34:07.402Z,1.33
2018-04-17T15:36:34.957Z,1.40
2018-04-17T15:39:02.548Z,1.47
2018-04-17T15:41:30.099Z,3.80
2018-04-17T15:43:57.654Z,3.00
2018-04-17T15:46:25.203Z,2.07
2018-04-17T15:48:52.731Z,1.30
2018-04-17T15:51:21.416Z,2.07
2018-04-17T15:53:49.716Z,3.30
2018-04-17T15:56:17.279Z,1.50
2018-04-17T15:58:44.831Z,2.60
2018-04-17T16:01:12.362Z,2.70
2018-04-17T16:03:39.911Z,1.50
2018-04-17T16:06:07.457Z,1.50
2018-04-17T16:08:35.794Z,1.67
2018-04-17T16:11:03.339Z,2.03
2018-04-17T16:13:30.888Z,1.93
2018-04-17T16:15:58.442Z,1.60
2018-04-17T16:18:26.063Z,1.17
2018-04-17T16:20:54.389Z,2.80
2018-04-17T16:23:21.907Z,1.43
2018-04-17T16:25:50.238Z,2.03
2018-04-17T16:28:17.783Z,1.67
2018-04-17T16:30:45.330Z,2.10
2018-04-17T16:33:12.868Z,1.83
2018-04-17T16:35:41.187Z,2.30
2018-04-17T16:38:08.743Z,2.40
2018-04-17T16:40:36.291Z,2.37
2018-04-17T16:43:03.834Z,1.67
2018-04-17T16:45:32.154Z,2.87
2018-04-17T16:47:59.702Z,4.03
2018-04-17T16:50:27.361Z,4.27
2018-04-17T16:52:54.915Z,2.27
2018-04-17T16:55:22.447Z,1.53
2018-04-17T16:57:50.739Z,7.90
2018-04-17T17:00:18.312Z,2.17
2018-04-17T17:02:45.848Z,3.30
2018-04-17T17:05:14.155Z,8.73
2018-04-17T17:07:41.687Z,1.83
2018-04-17T17:10:09.991Z,2.50
2018-04-17T17:12:37.538Z,1.47
2018-04-17T17:15:05.066Z,3.60
2018-04-17T17:17:32.643Z,1.63
2018-04-17T17:20:00.226Z,1.77
2018-04-17T17:22:28.706Z,3.33
2018-04-17T17:24:56.247Z,2.43
2018-04-17T17:27:23.922Z,2.87
2018-04-17T17:29:51.459Z,2.40
2018-04-17T17:32:19.030Z,1.93
2018-04-17T17:34:46.580Z,1.70
2018-04-17T17:37:14.110Z,1.60
2018-04-17T17:39:42.427Z,4.17
2018-04-17T17:42:09.952Z,2.20
2018-04-17T17:44:38.282Z,4.67
2018-04-17T17:47:05.808Z,4.43
2018-04-17T17:49:33.382Z,1.50
2018-04-17T17:52:00.923Z,2.77
2018-04-17T17:54:28.513Z,2.20
2018-04-17T17:56:56.047Z,1.90
2018-04-17T17:59:23.647Z,2.80
2018-04-17T18:01:51.244Z,3.97
2018-04-17T18:04:19.569Z,2.50
2018-04-17T18:10:18.495Z,2.13
2018-04-17T18:12:46.051Z,1.80
2018-04-17T18:15:13.613Z,10.93
2018-04-17T18:17:41.180Z,12.80
2018-04-17T18:20:08.742Z,2.50
2018-04-17T18:22:36.291Z,3.80
2018-04-17T18:25:04.606Z,4.60
2018-04-17T18:27:32.164Z,2.10
2018-04-17T18:29:59.731Z,2.90
2018-04-17T18:32:27.386Z,2.10
2018-04-17T18:34:54.922Z,3.70
2018-04-17T18:37:22.462Z,2.60
2018-04-17T18:39:50.780Z,8.87
2018-04-17T18:42:18.319Z,4.47
2018-04-17T18:44:45.883Z,5.90
2018-04-17T18:47:13.428Z,5.73
2018-04-17T18:49:41.761Z,2.37
2018-04-17T18:52:09.342Z,2.23
2018-04-17T18:54:36.901Z,3.60
2018-04-17T18:57:04.471Z,5.83
2018-04-17T18:59:32.771Z,2.23
2018-04-17T19:02:01.087Z,4.27
2018-04-17T19:04:28.624Z,2.67
2018-04-17T19:06:56.189Z,3.30
2018-04-17T19:09:23.757Z,4.00
2018-04-17T19:11:51.308Z,2.90
2018-04-17T19:14:18.915Z,6.50
2018-04-17T19:16:46.445Z,2.70
2018-04-17T19:19:14.019Z,3.73
2018-04-17T19:21:41.559Z,2.70
2018-04-17T19:24:09.141Z,1.90
2018-04-17T19:26:36.731Z,3.80
2018-04-17T19:29:04.317Z,4.17
2018-04-17T19:31:31.849Z,4.60
2018-04-17T19:33:59.611Z,3.47
2018-04-17T19:36:27.197Z,2.30
2018-04-17T19:38:54.767Z,2.80
2018-04-17T19:41:22.322Z,2.00
2018-04-17T19:43:49.859Z,5.60
2018-04-17T19:46:17.411Z,2.50
2018-04-17T19:48:44.949Z,2.07
2018-04-17T19:51:13.317Z,2.60
2018-04-17T19:53:41.624Z,2.10
2018-04-17T19:56:09.179Z,5.93
2018-04-17T19:58:36.723Z,2.50
2018-04-17T20:01:05.051Z,3.07
2018-04-17T20:03:32.614Z,4.93
2018-04-17T20:06:00.151Z,4.37
2018-04-17T20:08:27.739Z,5.00
2018-04-17T20:10:55.313Z,2.53
2018-04-17T20:13:22.883Z,2.37
2018-04-17T20:15:50.427Z,3.73
2018-04-17T20:18:18.003Z,4.00
2018-04-17T20:20:45.550Z,2.80
2018-04-17T20:23:13.106Z,1.80
2018-04-17T20:25:40.651Z,3.00
2018-04-17T20:28:08.212Z,2.60
2018-04-17T20:30:35.769Z,3.13
2018-04-17T20:33:03.307Z,3.70
2018-04-17T20:35:30.881Z,2.17
2018-04-17T20:37:58.416Z,2.90
2018-04-17T20:40:26.799Z,1.93
2018-04-17T20:42:54.367Z,2.60
2018-04-17T20:45:21.967Z,3.83
2018-04-17T20:47:49.508Z,3.50
2018-04-17T20:50:17.069Z,2.50
2018-04-17T20:52:44.632Z,2.40
2018-04-17T20:55:12.188Z,2.70
2018-04-17T20:57:39.725Z,3.23
2018-04-17T21:00:07.255Z,2.90
2018-04-17T21:02:35.591Z,3.20
2018-04-17T21:05:03.141Z,2.27
2018-04-17T21:07:30.718Z,3.03
2018-04-17T21:09:58.250Z,2.40
2018-04-17T21:12:25.813Z,3.10
2018-04-17T21:14:53.342Z,3.77
2018-04-17T21:17:21.696Z,2.23
2018-04-17T21:19:49.241Z,1.80
2018-04-17T21:22:16.824Z,2.10
2018-04-17T21:24:45.140Z,4.87
2018-04-17T21:27:12.814Z,2.53
2018-04-17T21:29:40.356Z,3.23
2018-04-17T21:32:07.898Z,2.80
2018-04-17T21:34:36.231Z,2.30
2018-04-17T21:37:03.772Z,2.73
2018-04-17T21:39:31.299Z,2.33
2018-04-17T21:41:58.866Z,3.30
2018-04-17T21:44:26.419Z,4.43
2018-04-17T21:46:54.013Z,3.70
2018-04-17T21:49:21.570Z,3.53
2018-04-17T21:51:49.138Z,2.87
2018-04-17T21:54:16.697Z,2.80
2018-04-17T21:56:44.226Z,2.90
2018-04-17T21:59:12.559Z,2.90
2018-04-17T22:01:40.109Z,3.37
2018-04-17T22:04:07.704Z,3.10
2018-04-17T22:06:35.227Z,2.97
2018-04-17T22:09:02.815Z,2.60
2018-04-17T22:11:30.348Z,5.40
2018-04-17T22:13:57.899Z,2.63
2018-04-17T22:16:25.474Z,2.93
2018-04-17T22:18:53.004Z,2.67
2018-04-17T22:21:20.580Z,3.00
2018-04-17T22:23:48.116Z,3.30
2018-04-17T22:26:15.668Z,3.70
2018-04-17T22:28:43.198Z,4.63
2018-04-17T22:31:11.507Z,3.27
2018-04-17T22:33:39.048Z,3.80
2018-04-17T22:36:07.368Z,2.27
2018-04-17T22:38:35.020Z,3.13
2018-04-17T22:41:02.563Z,3.20
2018-04-17T22:43:30.111Z,2.37
2018-04-17T22:45:57.651Z,3.03
2018-04-17T22:48:25.983Z,3.17
2018-04-17T22:50:53.533Z,2.83
2018-04-17T22:53:21.110Z,6.00
2018-04-17T22:55:48.643Z,3.60
2018-04-17T22:58:16.216Z,3.67
2018-04-17T23:00:43.751Z,3.40
2018-04-17T23:03:11.300Z,5.33
2018-04-17T23:05:39.666Z,3.40
2018-04-17T23:08:07.975Z,3.42
2018-04-17T23:10:35.514Z,5.35
2018-04-17T23:13:03.843Z,4.03
2018-04-17T23:15:31.400Z,3.72
2018-04-17T23:17:58.995Z,11.55
2018-04-17T23:20:26.552Z,3.97
2018-04-17T23:22:54.119Z,5.80
2018-04-17T23:25:22.499Z,3.73
2018-04-17T23:27:51.074Z,6.00
2018-04-17T23:30:19.409Z,3.97
2018-04-17T23:32:46.955Z,6.40
2018-04-17T23:35:14.515Z,5.47
2018-04-17T23:37:42.061Z,4.60
2018-04-17T23:40:09.619Z,3.37
2018-04-17T23:42:37.176Z,3.72
2018-04-17T23:45:04.785Z,4.05
2018-04-17T23:47:32.370Z,6.10
2018-04-17T23:49:59.910Z,4.57
2018-04-17T23:52:27.471Z,3.75
2018-04-17T23:54:55.016Z,4.53
2018-04-17T23:57:22.591Z,4.47
2018-04-17T23:59:50.152Z,4.50
